Bookmark and Share
Track history (hours):
 

Sincerity Ace

Last reported at 2014-Apr-09 08:24 UTC. Time now 2014-Apr-21 12:25 UTC.
Position S 37°16' E 150°29'.
Warning: this ship's position is 12 days out of date.

Length 200 m; draft 7.9 m.

Type: Cargo ship. MMSI: 351690000.

NotesDate/timePositionNaut miles runAvg speedWind from/ knotsBaromVisibWave heightAir tempDewpointWater temp
2014-Apr-09 08:24S 37°16' E 150°29'1616.5
2014-Apr-09 07:28S 37°30' E 150°20'1516.6
2014-Apr-09 06:33S 37°43' E 150°11'1616.4
2014-Apr-09 05:33S 37°53' E 149°54'6817.0
2014-Apr-09 01:32S 38°32' E 148°44'1717.1
2014-Apr-09 00:33S 38°42' E 148°26'5517.5
2014-Apr-08 21:25S 39°01' E 147°20'1617.1
2014-Apr-08 20:30S 39°07' E 147°01'2116.9
2014-Apr-08 19:17S 39°16' E 146°38'1618.0
2014-Apr-08 18:24S 39°18' E 146°17'3916.8
2014-Apr-08 16:07S 39°00' E 145°33'5612.0
2014-Apr-08 11:28S 38°19' E 144°46'1112.1
2014-Apr-08 10:33S 38°10' E 144°55'1616.0
2014-Apr-08 09:33S 37°54' E 144°55'3 3.0
2014-Apr-08 08:30S 37°51' E 144°55'0 0.0
2014-Apr-08 07:30S 37°51' E 144°55'0 0.0
2014-Apr-08 06:30S 37°51' E 144°55'0 0.0
2014-Apr-08 05:30S 37°51' E 144°55'0 0.0
2014-Apr-08 04:30S 37°51' E 144°55'0 0.0
2014-Apr-08 03:30S 37°51' E 144°55'0 0.0
2014-Apr-08 02:30S 37°51' E 144°55'0 0.0
2014-Apr-08 01:30S 37°51' E 144°55'0 0.0
2014-Apr-08 00:30S 37°51' E 144°55'0 0.0
2014-Apr-07 22:30S 37°51' E 144°55'0 0.0
2014-Apr-07 21:34S 37°51' E 144°55'6 5.7
2014-Apr-07 20:34S 37°56' E 144°56'1817.6
2014-Apr-07 19:33S 38°14' E 144°55'36 8.9
2014-Apr-07 15:33S 38°48' E 144°41'1515.0
2014-Apr-07 14:33S 38°47' E 144°60'1716.7
2014-Apr-07 13:33S 38°53' E 145°20'9 9.0
2014-Apr-07 12:30S 38°58' E 145°30'1717.6
2014-Apr-07 11:33S 39°07' E 145°49'1816.5
2014-Apr-07 10:28S 39°12' E 146°11'1516.1
2014-Apr-07 09:33S 39°09' E 146°29'1616.2
2014-Apr-07 08:33S 39°03' E 146°49'1716.9
2014-Apr-07 07:32S 38°59' E 147°11'14616.2
2014-Apr-06 22:33S 37°51' E 149°55'1717.4
2014-Apr-06 21:33S 37°40' E 150°11'289 7.8
2014-Apr-05 08:33S 33°09' E 152°15'1716.7
2014-Apr-05 07:32S 32°59' E 152°32'2018.1
2014-Apr-05 06:27S 32°46' E 152°48'29218.3
2014-Apr-04 14:27S 27°58' E 153°50'1820.1
2014-Apr-04 13:33S 27°40' E 153°48'2019.4
2014-Apr-04 12:32S 27°20' E 153°46'2218.3
2014-Apr-04 11:19S 26°58' E 153°41'35 6.9
2014-Apr-04 06:12S 27°21' E 153°11'2 0.3
2014-Apr-03 22:17S 27°23' E 153°10'0 0.0
2014-Apr-03 21:32S 27°23' E 153°10'0 0.0
2014-Apr-03 20:32S 27°23' E 153°10'0 0.0
2014-Apr-03 19:29S 27°23' E 153°10'0 0.0
2014-Apr-03 18:32S 27°23' E 153°10'0 0.0
2014-Apr-03 17:32S 27°23' E 153°10'0 0.0
2014-Apr-03 16:32S 27°23' E 153°10'2 1.8
2014-Apr-03 15:33S 27°21' E 153°11'1413.6
2014-Apr-03 14:33S 27°11' E 153°21'1716.6
2014-Apr-03 13:33S 26°56' E 153°12'1313.2
2014-Apr-03 12:33S 26°43' E 153°10'1312.8
2014-Apr-03 11:33S 26°33' E 153°19'6 6.2
2014-Apr-03 10:31S 26°27' E 153°22'  

Dump ship's entire track history

sailing weather and tide predictions

Sincerity Ace — 3FFD7 — position and weather